Climatologie pour Saint-Brevin les Pins
Jour • Résumé pour décembre 9, 2017 Système :  Anglais    Métrique   Mixte
« - 1 jour
+ 1 jour »
Jour Semaine Mois Année Personnalisé
  Maximum : Minimum : Moyenne :
Température sous abri : 46.9 °F 34.5 °F 40.8 °F
Point de rosée : 46 °F 32 °F 38.3 °F
Humidité : 97 % 84 % 91 %
Vitesse du vent : 12 mph 0 mph 3 mph
Rafale : 18 mph - -
Direction :- - SSW
Pression : 30.3 in 29.6 in -
Précipitations : 0.13 in    
Historical Graphs
 
 
Tableau de données pour décembre 9, 2017
Heure Tempé Pt rosée Pression Vent Vitesse Rafale Humidité Taux pluie (/hr) Soleil
00:00 37 °F 33.8 °F 30.3 in NNW 4 mph 8 mph 88 % 0 in 0 W/m2
00:10 37.2 °F 33.8 °F 30.3 in WNW 4 mph 10 mph 87 % 0 in 0 W/m2
00:15 37.4 °F 33.8 °F 30.3 in NNW 3 mph 8 mph 87 % 0 in 0 W/m2
00:20 37.2 °F 33.8 °F 30.3 in WNW 2 mph 8 mph 87 % 0 in 0 W/m2
00:25 37 °F 33.6 °F 30.3 in WNW 2 mph 6 mph 87 % 0 in 0 W/m2
00:30 37 °F 33.4 °F 30.3 in NNW 3 mph 6 mph 87 % 0 in 0 W/m2
00:35 36.9 °F 33.6 °F 30.3 in NNW 2 mph 5 mph 88 % 0 in 0 W/m2
00:45 36.1 °F 32.9 °F 30.3 in NW 4 mph 4 mph 88 % 0 in 0 W/m2
00:50 36 °F 32.7 °F 30.3 in Calm   6 mph 88 % 0 in 0 W/m2
00:55 36 °F 32.9 °F 30.3 in Calm   6 mph 89 % 0 in 0 W/m2
01:00 35.6 °F 32.7 °F 30.3 in Calm   5 mph 89 % 0 in 0 W/m2
01:05 35.2 °F 32.5 °F 30.3 in Calm   4 mph 90 % 0 in 0 W/m2
01:15 34.7 °F 32 °F 30.3 in Calm   3 mph 90 % 0 in 0 W/m2
01:20 34.9 °F 32.2 °F 30.3 in Calm   4 mph 90 % 0 in 0 W/m2
01:25 34.5 °F 32.2 °F 30.3 in Calm   4 mph 91 % 0 in 0 W/m2
01:30 34.5 °F 32.2 °F 30.3 in WNW 2 mph 3 mph 91 % 0 in 0 W/m2
01:35 34.5 °F 32.2 °F 30.3 in NW 3 mph 6 mph 91 % 0 in 0 W/m2
01:40 34.5 °F 32.2 °F 30.3 in Calm   6 mph 91 % 0 in 0 W/m2
01:45 34.9 °F 32.7 °F 30.3 in Calm   7 mph 92 % 0 in 0 W/m2
01:50 34.7 °F 32.5 °F 30.3 in NNW 3 mph 7 mph 92 % 0 in 0 W/m2
02:00 35.1 °F 33.1 °F 30.3 in North 3 mph 7 mph 92 % 0 in 0 W/m2
02:05 35.4 °F 33.3 °F 30.3 in NW 1 mph 7 mph 92 % 0 in 0 W/m2
02:10 35.6 °F 33.4 °F 30.3 in NW 1 mph 8 mph 92 % 0 in 0 W/m2
02:15 36.1 °F 34 °F 30.3 in NW 1 mph 8 mph 92 % 0 in 0 W/m2
02:20 36.5 °F 34.3 °F 30.3 in WNW 3 mph 7 mph 92 % 0 in 0 W/m2
02:25 36.9 °F 34.7 °F 30.3 in WNW 2 mph 7 mph 92 % 0 in 0 W/m2
02:30 37.2 °F 34.9 °F 30.3 in NW 4 mph 7 mph 91 % 0 in 0 W/m2
02:40 37.8 °F 35.1 °F 30.3 in NW 6 mph 10 mph 90 % 0 in 0 W/m2
02:45 38.5 °F 35.8 °F 30.3 in NW 4 mph 7 mph 90 % 0 in 0 W/m2
02:50 39 °F 36.1 °F 30.3 in WNW 5 mph 9 mph 89 % 0 in 0 W/m2
02:55 39.7 °F 36.1 °F 30.3 in NW 6 mph 10 mph 87 % 0 in 0 W/m2
03:00 40.3 °F 36.5 °F 30.3 in WNW 7 mph 10 mph 86 % 0 in 0 W/m2
03:10 40.5 °F 36.3 °F 30.3 in NW 5 mph 10 mph 85 % 0 in 0 W/m2
03:15 40.6 °F 36.1 °F 30.3 in West 6 mph 10 mph 84 % 0 in 0 W/m2
03:20 40.3 °F 35.8 °F 30.3 in NW 8 mph 9 mph 84 % 0 in 0 W/m2
03:30 39.7 °F 35.6 °F 30.3 in WNW 3 mph 12 mph 85 % 0 in 0 W/m2
03:35 40.3 °F 35.8 °F 30.3 in WNW 5 mph 9 mph 84 % 0 in 0 W/m2
03:40 40.5 °F 36 °F 30.3 in NW 1 mph 9 mph 84 % 0 in 0 W/m2
03:45 40.3 °F 35.8 °F 30.3 in NW 1 mph 8 mph 84 % 0 in 0 W/m2
03:50 39.9 °F 35.6 °F 30.3 in NNW 9 mph 9 mph 84 % 0 in 0 W/m2
03:55 39.9 °F 35.4 °F 30.3 in WNW 4 mph 9 mph 84 % 0 in 0 W/m2
04:00 39.7 °F 35.6 °F 30.3 in WNW 3 mph 9 mph 85 % 0 in 0 W/m2
04:05 39.9 °F 35.8 °F 30.3 in NW 2 mph 9 mph 85 % 0 in 0 W/m2
04:20 39.4 °F 35.8 °F 30.3 in WNW 2 mph 10 mph 87 % 0 in 0 W/m2
04:30 39.4 °F 35.4 °F 30.3 in WNW 3 mph 7 mph 86 % 0 in 0 W/m2
04:35 39.4 °F 35.8 °F 30.3 in NW 3 mph 7 mph 87 % 0 in 0 W/m2
04:45 39.7 °F 36.3 °F 30.3 in WNW 3 mph 8 mph 87 % 0 in 0 W/m2
04:50 39.9 °F 36.1 °F 30.3 in WNW 2 mph 9 mph 86 % 0 in 0 W/m2
04:55 40.1 °F 36.3 °F 30.3 in WNW 7 mph 9 mph 86 % 0 in 0 W/m2
05:00 40.1 °F 36.3 °F 30.3 in WNW 4 mph 9 mph 86 % 0 in 0 W/m2
05:05 40.1 °F 36.3 °F 30.3 in NW 1 mph 9 mph 86 % 0 in 0 W/m2
05:10 39.9 °F 36.1 °F 30.3 in NW 4 mph 9 mph 86 % 0 in 0 W/m2
05:15 39.4 °F 35.8 °F 30.3 in NW 1 mph 7 mph 87 % 0 in 0 W/m2
05:20 38.8 °F 35.2 °F 30.3 in Calm   5 mph 87 % 0 in 0 W/m2
05:25 38.8 °F 35.6 °F 30.3 in NW 2 mph 6 mph 88 % 0 in 0 W/m2
05:35 39.7 °F 36.7 °F 30.3 in NW 3 mph 6 mph 89 % 0 in 0 W/m2
05:40 39.9 °F 36.7 °F 30.3 in WNW 2 mph 6 mph 88 % 0 in 0 W/m2
06:00 40.5 °F 36.9 °F 30.3 in WNW 2 mph 5 mph 87 % 0 in 0 W/m2
06:05 40.3 °F 36.7 °F 30.3 in NW 3 mph 6 mph 87 % 0 in 0 W/m2
06:10 39.9 °F 36.5 °F 30.2 in WNW 2 mph 6 mph 87 % 0 in 0 W/m2
06:15 39.9 °F 36.5 °F 30.2 in WNW 4 mph 7 mph 87 % 0 in 0 W/m2
06:25 39.6 °F 36.3 °F 30.2 in WNW 3 mph 6 mph 88 % 0 in 0 W/m2
06:30 39.6 °F 36.3 °F 30.2 in WNW 4 mph 6 mph 88 % 0 in 0 W/m2
06:45 39.6 °F 36.3 °F 30.2 in Calm   10 mph 88 % 0 in 0 W/m2
06:55 39.6 °F 36 °F 30.2 in NW 5 mph 7 mph 87 % 0 in 0 W/m2
07:00 39.7 °F 36.5 °F 30.2 in NW 4 mph 9 mph 88 % 0 in 0 W/m2
07:10 39.9 °F 36.7 °F 30.2 in NNW 4 mph 9 mph 88 % 0 in 0 W/m2
07:15 40.1 °F 36.5 °F 30.2 in Calm   9 mph 87 % 0 in 0 W/m2
07:20 39.9 °F 36.7 °F 30.2 in WNW 3 mph 8 mph 88 % 0 in 0 W/m2
07:25 39.7 °F 36.5 °F 30.2 in WNW 2 mph 8 mph 88 % 0 in 0 W/m2
07:35 39.6 °F 36.7 °F 30.2 in WNW 2 mph 7 mph 89 % 0 in 0 W/m2
07:45 39.2 °F 36.3 °F 30.2 in WNW 4 mph 5 mph 89 % 0 in 0 W/m2
07:50 38.8 °F 36 °F 30.2 in WNW 1 mph 5 mph 89 % 0 in 0 W/m2
07:55 38.5 °F 35.8 °F 30.2 in NNW 6 mph 6 mph 90 % 0 in 0 W/m2
08:05 38.7 °F 36 °F 30.2 in Calm   6 mph 90 % 0 in 0 W/m2
08:20 37.9 °F 35.6 °F 30.2 in NW 1 mph 4 mph 91 % 0 in 0 W/m2
08:25 37.8 °F 35.2 °F 30.2 in Calm   3 mph 91 % 0 in 0 W/m2
08:30 37.4 °F 35.2 °F 30.2 in Calm   5 mph 92 % 0 in 0 W/m2
08:40 37 °F 35.1 °F 30.2 in NW 2 mph 4 mph 92 % 0 in 5 W/m2
08:45 37 °F 35.1 °F 30.2 in Calm   4 mph 92 % 0 in 5 W/m2
08:50 37 °F 35.2 °F 30.2 in Calm   3 mph 93 % 0 in 7 W/m2
08:55 37 °F 35.2 °F 30.2 in Calm   2 mph 93 % 0 in 11 W/m2
09:00 37 °F 35.2 °F 30.2 in Calm   1 mph 93 % 0 in 14 W/m2
09:10 36.9 °F 34.9 °F 30.2 in Calm   1 mph 93 % 0 in 23 W/m2
09:15 37.2 °F 35.4 °F 30.2 in Calm   4 mph 93 % 0 in 26 W/m2
09:20 37.9 °F 36.3 °F 30.2 in Calm   4 mph 94 % 0 in 30 W/m2
09:30 37.8 °F 36 °F 30.2 in Calm   5 mph 93 % 0 in 39 W/m2
09:35 37.6 °F 35.4 °F 30.2 in ESE 3 mph 5 mph 92 % 0 in 46 W/m2
09:45 37.4 °F 35.2 °F 30.2 in ESE 2 mph 3 mph 92 % 0 in 54 W/m2
09:50 37.2 °F 35.2 °F 30.2 in ESE 1 mph 3 mph 92 % 0 in 60 W/m2
09:55 37.2 °F 35.2 °F 30.2 in Calm   3 mph 92 % 0 in 65 W/m2
10:00 37.4 °F 35.2 °F 30.2 in Calm   3 mph 92 % 0 in 76 W/m2
10:05 37.6 °F 35.4 °F 30.2 in Calm   2 mph 92 % 0 in 81 W/m2
10:10 37.6 °F 35.4 °F 30.2 in Calm   2 mph 92 % 0 in 83 W/m2
10:20 37.8 °F 35.6 °F 30.2 in Calm   4 mph 92 % 0 in 90 W/m2
10:25 37.9 °F 35.6 °F 30.2 in ESE 2 mph 4 mph 91 % 0 in 93 W/m2
10:30 37.9 °F 35.4 °F 30.2 in SE 2 mph 4 mph 91 % 0 in 98 W/m2
10:35 37.9 °F 35.4 °F 30.2 in SE 4 mph 4 mph 91 % 0 in 105 W/m2
10:45 37.9 °F 35.6 °F 30.2 in SE 1 mph 4 mph 91 % 0 in 116 W/m2
10:50 38.1 °F 35.8 °F 30.2 in SE 3 mph 3 mph 91 % 0 in 109 W/m2
10:55 38.5 °F 36 °F 30.2 in SE 2 mph 3 mph 91 % 0 in 114 W/m2
11:05 38.8 °F 36.1 °F 30.2 in Calm   5 mph 90 % 0 in 127 W/m2
11:10 39.4 °F 36.7 °F 30.2 in ESE 1 mph 5 mph 90 % 0 in 139 W/m2
11:15 39.6 °F 36.5 °F 30.2 in SSE 3 mph 5 mph 89 % 0 in 130 W/m2
11:25 39.6 °F 36.7 °F 30.2 in Calm   5 mph 89 % 0 in 139 W/m2
11:30 39.9 °F 37 °F 30.2 in Calm   3 mph 89 % 0 in 174 W/m2
11:35 40.5 °F 37.6 °F 30.2 in SE 3 mph 5 mph 89 % 0 in 218 W/m2
11:40 40.8 °F 37.6 °F 30.2 in SE 4 mph 5 mph 88 % 0 in 183 W/m2
11:45 40.8 °F 37.4 °F 30.2 in Calm   5 mph 87 % 0 in 163 W/m2
11:50 41.2 °F 37.6 °F 30.2 in ESE 4 mph 4 mph 87 % 0 in 148 W/m2
11:55 41.4 °F 37.8 °F 30.2 in SE 2 mph 4 mph 87 % 0 in 141 W/m2
12:00 41.4 °F 37.8 °F 30.2 in SE 3 mph 5 mph 87 % 0 in 130 W/m2
12:05 41.5 °F 38.3 °F 30.2 in Calm   5 mph 88 % 0 in 141 W/m2
12:10 41.5 °F 38.3 °F 30.2 in SE 4 mph 6 mph 88 % 0 in 130 W/m2
12:20 41.5 °F 38.7 °F 30.2 in Calm   7 mph 89 % 0 in 132 W/m2
12:25 41.5 °F 38.3 °F 30.2 in SSE 4 mph 6 mph 88 % 0 in 137 W/m2
12:40 41.7 °F 38.1 °F 30.2 in ESE 2 mph 7 mph 87 % 0 in 121 W/m2
12:45 41.7 °F 38.1 °F 30.2 in SE 3 mph 6 mph 87 % 0 in 137 W/m2
12:55 41.7 °F 38.1 °F 30.2 in South 4 mph 6 mph 87 % 0 in 109 W/m2
13:00 41.7 °F 38.3 °F 30.2 in South 2 mph 6 mph 87 % 0 in 111 W/m2
13:05 41.9 °F 38.3 °F 30.2 in SSE 4 mph 6 mph 87 % 0 in 104 W/m2
13:10 42.3 °F 38.7 °F 30.2 in SSE 2 mph 6 mph 87 % 0 in 134 W/m2
13:15 42.6 °F 39 °F 30.2 in SSE 3 mph 7 mph 87 % 0 in 179 W/m2
13:20 43 °F 39 °F 30.2 in South 5 mph 7 mph 86 % 0 in 151 W/m2
13:25 43 °F 38.8 °F 30.2 in SSE 4 mph 7 mph 85 % 0 in 121 W/m2
13:30 43.2 °F 39 °F 30.2 in SE 1 mph 6 mph 85 % 0 in 113 W/m2
13:35 43.3 °F 39.2 °F 30.1 in SSE 3 mph 5 mph 85 % 0 in 123 W/m2
13:40 43.7 °F 39.6 °F 30.1 in SE 2 mph 5 mph 85 % 0 in 137 W/m2
13:45 43.9 °F 39.7 °F 30.1 in SSE 2 mph 8 mph 85 % 0 in 120 W/m2
13:50 43.9 °F 39.2 °F 30.1 in SSE 4 mph 8 mph 84 % 0 in 76 W/m2
14:00 43.7 °F 39.6 °F 30.1 in SSE 5 mph 7 mph 85 % 0.01 in 53 W/m2
14:05 43.5 °F 39.9 °F 30.1 in South 1 mph 7 mph 87 % 0.01 in 72 W/m2
14:10 43.3 °F 40.5 °F 30.1 in South 2 mph 7 mph 89 % 0.01 in 98 W/m2
14:20 43.5 °F 40.8 °F 30.1 in SE 3 mph 4 mph 90 % 0.01 in 93 W/m2
14:25 43.5 °F 40.8 °F 30.1 in SE 4 mph 5 mph 90 % 0.01 in 93 W/m2
14:30 43.5 °F 40.8 °F 30.1 in Calm   5 mph 90 % 0.01 in 88 W/m2
14:45 43.7 °F 41 °F 30.1 in Calm   5 mph 90 % 0.01 in 69 W/m2
14:50 43.7 °F 41 °F 30.1 in SSE 2 mph 5 mph 90 % 0.01 in 65 W/m2
14:55 43.7 °F 41 °F 30.1 in South 2 mph 5 mph 90 % 0.02 in 60 W/m2
15:00 43.9 °F 41 °F 30.1 in Calm   5 mph 90 % 0.01 in 44 W/m2
15:10 43.9 °F 41 °F 30.1 in SSE 2 mph 6 mph 90 % 0.01 in 40 W/m2
15:20 43.9 °F 41 °F 30.1 in SSE 2 mph 8 mph 90 % 0.01 in 54 W/m2
15:25 43.9 °F 41.2 °F 30.1 in SSE 2 mph 8 mph 90 % 0.01 in 54 W/m2
15:30 44.1 °F 41.2 °F 30.1 in SSE 2 mph 6 mph 90 % 0.01 in 40 W/m2
15:40 44.1 °F 41.2 °F 30.1 in SSE 2 mph 4 mph 90 % 0.01 in 39 W/m2
15:45 44.1 °F 41.2 °F 30 in SSE 2 mph 5 mph 90 % 0.01 in 37 W/m2
15:55 44.2 °F 41.5 °F 30 in SSE 1 mph 4 mph 90 % 0 in 23 W/m2
16:05 44.2 °F 41.5 °F 30 in South 4 mph 5 mph 90 % 0 in 21 W/m2
16:10 44.2 °F 41.5 °F 30 in SSE 2 mph 5 mph 90 % 0 in 21 W/m2
16:15 44.2 °F 41.5 °F 30 in SSE 2 mph 5 mph 90 % 0 in 19 W/m2
16:20 44.2 °F 41.7 °F 30 in South 2 mph 6 mph 91 % 0 in 21 W/m2
16:30 44.2 °F 41.9 °F 30 in SSW 5 mph 8 mph 91 % 0.01 in 21 W/m2
16:35 44.2 °F 41.5 °F 30 in SSW 5 mph 8 mph 90 % 0.01 in 16 W/m2
16:40 44.2 °F 41.5 °F 30 in SSW 5 mph 7 mph 90 % 0.01 in 14 W/m2
16:45 44.2 °F 41.7 °F 30 in South 3 mph 7 mph 91 % 0.01 in 12 W/m2
16:50 44.1 °F 41.7 °F 30 in South 3 mph 7 mph 91 % 0.01 in 9 W/m2
16:55 44.1 °F 41.5 °F 30 in South 4 mph 7 mph 91 % 0.01 in 5 W/m2
17:00 43.9 °F 41.4 °F 30 in South 3 mph 7 mph 91 % 0.01 in 0 W/m2
17:05 43.9 °F 41.4 °F 30 in SSE 1 mph 5 mph 91 % 0.01 in 0 W/m2
17:10 43.9 °F 41.4 °F 30 in SE 4 mph 5 mph 91 % 0.01 in 0 W/m2
17:20 43.7 °F 41.5 °F 30 in SE 3 mph 5 mph 92 % 0.01 in 0 W/m2
17:25 43.5 °F 41.4 °F 30 in SE 3 mph 4 mph 92 % 0.02 in 0 W/m2
17:30 43.3 °F 41.2 °F 30 in SE 1 mph 4 mph 92 % 0.01 in 0 W/m2
17:35 43.2 °F 41.4 °F 30 in SSE 3 mph 6 mph 93 % 0.01 in 0 W/m2
17:40 43.2 °F 41.2 °F 30 in Calm   6 mph 93 % 0.01 in 0 W/m2
17:45 43.2 °F 41.2 °F 30 in Calm   5 mph 93 % 0.01 in 0 W/m2
17:50 43 °F 41.2 °F 30 in SSE 2 mph 5 mph 93 % 0.01 in 0 W/m2
17:55 43 °F 41 °F 30 in SSE 1 mph 5 mph 93 % 0.01 in 0 W/m2
18:00 43 °F 41.4 °F 30 in Calm   4 mph 94 % 0.01 in 0 W/m2
18:20 42.8 °F 41.2 °F 29.9 in SSE 2 mph 8 mph 94 % 0.01 in 0 W/m2
18:30 42.6 °F 41.2 °F 29.9 in SSE 3 mph 5 mph 94 % 0 in 0 W/m2
18:35 42.6 °F 41.2 °F 29.9 in SSE 3 mph 5 mph 94 % 0 in 0 W/m2
18:40 42.6 °F 40.6 °F 29.9 in SE 4 mph 7 mph 93 % 0.01 in 0 W/m2
18:45 42.6 °F 40.6 °F 29.9 in SSE 3 mph 7 mph 93 % 0.01 in 0 W/m2
18:50 42.6 °F 40.6 °F 29.9 in SSE 5 mph 6 mph 93 % 0.01 in 0 W/m2
18:55 42.6 °F 41.2 °F 29.9 in SSE 5 mph 6 mph 94 % 0.01 in 0 W/m2
19:00 42.6 °F 40.8 °F 29.9 in SSE 3 mph 8 mph 93 % 0.01 in 0 W/m2
19:10 42.8 °F 41.2 °F 29.9 in SSE 2 mph 7 mph 94 % 0.01 in 0 W/m2
19:15 42.6 °F 41.2 °F 29.9 in SSE 2 mph 7 mph 94 % 0.02 in 0 W/m2
19:20 42.8 °F 41.2 °F 29.9 in SSE 5 mph 8 mph 94 % 0.02 in 0 W/m2
19:25 42.6 °F 41.2 °F 29.9 in SSE 3 mph 8 mph 94 % 0.02 in 0 W/m2
19:35 42.6 °F 41.2 °F 29.9 in SSE 4 mph 7 mph 94 % 0.02 in 0 W/m2
19:40 42.6 °F 41.4 °F 29.9 in SSE 2 mph 7 mph 95 % 0.02 in 0 W/m2
19:45 42.6 °F 41.4 °F 29.9 in SE 5 mph 8 mph 95 % 0.02 in 0 W/m2
20:00 42.6 °F 41.2 °F 29.9 in SSE 9 mph 9 mph 95 % 0.02 in 0 W/m2
20:05 42.6 °F 41.2 °F 29.9 in SE 6 mph 9 mph 95 % 0.03 in 0 W/m2
20:10 42.6 °F 41.2 °F 29.9 in South 5 mph 9 mph 95 % 0.03 in 0 W/m2
20:15 42.6 °F 41.2 °F 29.9 in ESE 3 mph 11 mph 95 % 0.02 in 0 W/m2
20:25 42.6 °F 41.5 °F 29.8 in SSE 3 mph 9 mph 96 % 0.02 in 0 W/m2
20:30 42.6 °F 41.5 °F 29.8 in SSE 5 mph 9 mph 96 % 0.02 in 0 W/m2
20:40 42.6 °F 41.7 °F 29.8 in SSE 6 mph 10 mph 96 % 0.02 in 0 W/m2
20:45 42.8 °F 41.7 °F 29.8 in SSE 4 mph 10 mph 96 % 0.02 in 0 W/m2
21:00 43 °F 41.9 °F 29.8 in SE 8 mph 12 mph 96 % 0.02 in 0 W/m2
21:05 43.2 °F 42.1 °F 29.8 in SSE 3 mph 11 mph 96 % 0.02 in 0 W/m2
21:10 43.2 °F 42.1 °F 29.8 in SSE 5 mph 11 mph 96 % 0.02 in 0 W/m2
21:20 43.3 °F 42.3 °F 29.8 in SE 6 mph 12 mph 96 % 0.02 in 0 W/m2
21:25 43.5 °F 42.4 °F 29.8 in SSE 8 mph 13 mph 96 % 0.02 in 0 W/m2
21:35 43.3 °F 42.3 °F 29.8 in South 4 mph 12 mph 96 % 0.01 in 0 W/m2
21:40 43.5 °F 42.6 °F 29.8 in South 8 mph 14 mph 97 % 0.01 in 0 W/m2
21:45 43.5 °F 42.6 °F 29.8 in SE 6 mph 14 mph 97 % 0.01 in 0 W/m2
22:05 44.1 °F 43.2 °F 29.8 in South 4 mph 14 mph 97 % 0 in 0 W/m2
22:20 44.2 °F 43.5 °F 29.7 in SSE 3 mph 14 mph 97 % 0.01 in 0 W/m2
22:25 44.4 °F 43.5 °F 29.7 in South 4 mph 14 mph 97 % 0.01 in 0 W/m2
22:30 44.6 °F 43.9 °F 29.7 in South 5 mph 15 mph 97 % 0.01 in 0 W/m2
22:35 44.8 °F 44.1 °F 29.7 in SSE 6 mph 15 mph 97 % 0.01 in 0 W/m2
22:40 45 °F 44.1 °F 29.7 in SE 10 mph 14 mph 97 % 0.01 in 0 W/m2
22:45 45.1 °F 44.2 °F 29.7 in South 12 mph 15 mph 97 % 0.01 in 0 W/m2
22:50 45.3 °F 44.4 °F 29.7 in SSW 6 mph 15 mph 97 % 0.01 in 0 W/m2
22:55 45.3 °F 44.6 °F 29.7 in South 8 mph 15 mph 97 % 0.02 in 0 W/m2
23:00 45.7 °F 44.8 °F 29.7 in South 7 mph 12 mph 97 % 0.02 in 0 W/m2
23:05 45.9 °F 45 °F 29.7 in SSE 6 mph 11 mph 97 % 0.02 in 0 W/m2
23:10 46 °F 45.3 °F 29.7 in South 9 mph 18 mph 97 % 0.02 in 0 W/m2
23:15 46.2 °F 45.5 °F 29.7 in South 4 mph 18 mph 97 % 0.03 in 0 W/m2
23:20 46.2 °F 45.5 °F 29.7 in South 6 mph 13 mph 97 % 0.03 in 0 W/m2
23:25 46.2 °F 45.5 °F 29.7 in SSE 3 mph 13 mph 97 % 0.03 in 0 W/m2
23:30 46.2 °F 45.5 °F 29.7 in SSE 7 mph 13 mph 97 % 0.04 in 0 W/m2
23:35 46.6 °F 45.7 °F 29.7 in SSE 10 mph 13 mph 97 % 0.04 in 0 W/m2
23:40 46.6 °F 45.9 °F 29.7 in SSE 11 mph 12 mph 97 % 0.04 in 0 W/m2
23:45 46.9 °F 46 °F 29.6 in South 10 mph 18 mph 97 % 0.04 in 0 W/m2
Avec l'autorisation de Weather Underground - 1.5 mb